sensor_id;sensor_type;location;lat;lon;timestamp;P1;durP1;ratioP1;P2;durP2;ratioP2
23684;SDS011;12020;51.384;6.908;2023-04-03T00:02:14;6.43;;;5.82;;
23684;SDS011;12020;51.384;6.908;2023-04-03T00:04:40;6.28;;;5.63;;
23684;SDS011;12020;51.384;6.908;2023-04-03T00:07:06;6.20;;;5.50;;
23684;SDS011;12020;51.384;6.908;2023-04-03T00:09:33;7.40;;;6.27;;
23684;SDS011;12020;51.384;6.908;2023-04-03T00:12:00;5.97;;;5.38;;
23684;SDS011;12020;51.384;6.908;2023-04-03T00:14:26;6.57;;;5.70;;
23684;SDS011;12020;51.384;6.908;2023-04-03T00:19:24;6.40;;;5.80;;
23684;SDS011;12020;51.384;6.908;2023-04-03T00:21:50;7.07;;;6.07;;
23684;SDS011;12020;51.384;6.908;2023-04-03T00:24:16;6.68;;;6.05;;
23684;SDS011;12020;51.384;6.908;2023-04-03T00:26:43;7.00;;;6.27;;
23684;SDS011;12020;51.384;6.908;2023-04-03T00:29:09;6.35;;;5.72;;
23684;SDS011;12020;51.384;6.908;2023-04-03T00:31:36;7.40;;;6.53;;
23684;SDS011;12020;51.384;6.908;2023-04-03T00:34:02;6.93;;;6.25;;
23684;SDS011;12020;51.384;6.908;2023-04-03T00:36:29;7.15;;;6.15;;
23684;SDS011;12020;51.384;6.908;2023-04-03T00:38:54;6.93;;;6.22;;
23684;SDS011;12020;51.384;6.908;2023-04-03T00:41:20;6.72;;;5.95;;
23684;SDS011;12020;51.384;6.908;2023-04-03T00:43:47;6.93;;;6.23;;
23684;SDS011;12020;51.384;6.908;2023-04-03T00:46:13;6.83;;;6.10;;
23684;SDS011;12020;51.384;6.908;2023-04-03T00:48:42;6.72;;;6.13;;
23684;SDS011;12020;51.384;6.908;2023-04-03T00:51:13;7.23;;;6.40;;
23684;SDS011;12020;51.384;6.908;2023-04-03T00:53:44;6.40;;;5.78;;
23684;SDS011;12020;51.384;6.908;2023-04-03T00:56:15;6.53;;;5.85;;
23684;SDS011;12020;51.384;6.908;2023-04-03T00:59:06;6.73;;;6.13;;
23684;SDS011;12020;51.384;6.908;2023-04-03T01:01:31;7.00;;;6.30;;
23684;SDS011;12020;51.384;6.908;2023-04-03T01:04:01;7.93;;;6.60;;
23684;SDS011;12020;51.384;6.908;2023-04-03T01:06:30;7.50;;;6.80;;
23684;SDS011;12020;51.384;6.908;2023-04-03T01:09:01;7.55;;;6.68;;
23684;SDS011;12020;51.384;6.908;2023-04-03T01:11:31;7.17;;;6.57;;
23684;SDS011;12020;51.384;6.908;2023-04-03T01:16:28;7.00;;;6.30;;
23684;SDS011;12020;51.384;6.908;2023-04-03T01:18:56;8.48;;;6.13;;
23684;SDS011;12020;51.384;6.908;2023-04-03T01:26:52;7.00;;;6.30;;
23684;SDS011;12020;51.384;6.908;2023-04-03T01:29:20;6.97;;;6.28;;
23684;SDS011;12020;51.384;6.908;2023-04-03T01:31:47;7.83;;;6.83;;
23684;SDS011;12020;51.384;6.908;2023-04-03T01:34:26;7.20;;;6.50;;
23684;SDS011;12020;51.384;6.908;2023-04-03T01:36:53;7.83;;;7.03;;
23684;SDS011;12020;51.384;6.908;2023-04-03T01:39:21;7.25;;;6.28;;
23684;SDS011;12020;51.384;6.908;2023-04-03T01:41:47;6.63;;;6.03;;
23684;SDS011;12020;51.384;6.908;2023-04-03T01:44:15;7.03;;;5.85;;
23684;SDS011;12020;51.384;6.908;2023-04-03T01:46:40;6.90;;;6.20;;
23684;SDS011;12020;51.384;6.908;2023-04-03T01:49:07;6.90;;;6.20;;
23684;SDS011;12020;51.384;6.908;2023-04-03T01:51:34;6.77;;;6.13;;
23684;SDS011;12020;51.384;6.908;2023-04-03T01:54:00;6.50;;;5.83;;
23684;SDS011;12020;51.384;6.908;2023-04-03T01:56:27;7.20;;;6.60;;
23684;SDS011;12020;51.384;6.908;2023-04-03T01:58:54;7.38;;;6.68;;
23684;SDS011;12020;51.384;6.908;2023-04-03T02:01:21;7.33;;;6.20;;
23684;SDS011;12020;51.384;6.908;2023-04-03T02:03:46;7.45;;;6.75;;
23684;SDS011;12020;51.384;6.908;2023-04-03T02:06:13;7.72;;;6.90;;
23684;SDS011;12020;51.384;6.908;2023-04-03T02:08:45;8.10;;;6.93;;
23684;SDS011;12020;51.384;6.908;2023-04-03T02:11:11;7.78;;;6.97;;
23684;SDS011;12020;51.384;6.908;2023-04-03T02:13:37;7.88;;;7.07;;
23684;SDS011;12020;51.384;6.908;2023-04-03T02:16:09;8.55;;;7.05;;
23684;SDS011;12020;51.384;6.908;2023-04-03T02:18:36;7.35;;;6.68;;
23684;SDS011;12020;51.384;6.908;2023-04-03T02:21:02;8.13;;;6.97;;
23684;SDS011;12020;51.384;6.908;2023-04-03T02:23:29;7.20;;;6.50;;
23684;SDS011;12020;51.384;6.908;2023-04-03T02:26:13;7.57;;;6.88;;
23684;SDS011;12020;51.384;6.908;2023-04-03T02:28:42;9.52;;;6.93;;
23684;SDS011;12020;51.384;6.908;2023-04-03T02:31:09;8.27;;;7.45;;
23684;SDS011;12020;51.384;6.908;2023-04-03T02:33:35;7.47;;;6.70;;
23684;SDS011;12020;51.384;6.908;2023-04-03T02:36:04;8.40;;;6.97;;
23684;SDS011;12020;51.384;6.908;2023-04-03T02:38:31;7.90;;;6.97;;
23684;SDS011;12020;51.384;6.908;2023-04-03T02:41:04;10.35;;;7.15;;
23684;SDS011;12020;51.384;6.908;2023-04-03T02:43:32;8.00;;;7.05;;
23684;SDS011;12020;51.384;6.908;2023-04-03T02:45:58;8.00;;;7.30;;
23684;SDS011;12020;51.384;6.908;2023-04-03T02:48:32;8.20;;;7.15;;
23684;SDS011;12020;51.384;6.908;2023-04-03T02:50:59;7.82;;;7.05;;
23684;SDS011;12020;51.384;6.908;2023-04-03T02:53:26;8.35;;;7.28;;
23684;SDS011;12020;51.384;6.908;2023-04-03T02:55:53;7.80;;;7.10;;
23684;SDS011;12020;51.384;6.908;2023-04-03T02:58:18;7.65;;;6.85;;
23684;SDS011;12020;51.384;6.908;2023-04-03T03:03:14;7.72;;;6.70;;
23684;SDS011;12020;51.384;6.908;2023-04-03T03:05:40;7.68;;;6.85;;
23684;SDS011;12020;51.384;6.908;2023-04-03T03:08:09;6.83;;;6.13;;
23684;SDS011;12020;51.384;6.908;2023-04-03T03:10:41;7.07;;;6.07;;
23684;SDS011;12020;51.384;6.908;2023-04-03T03:13:11;7.10;;;6.40;;
23684;SDS011;12020;51.384;6.908;2023-04-03T03:15:38;8.32;;;5.90;;
23684;SDS011;12020;51.384;6.908;2023-04-03T03:18:04;8.53;;;5.30;;
23684;SDS011;12020;51.384;6.908;2023-04-03T03:20:31;6.57;;;5.38;;
23684;SDS011;12020;51.384;6.908;2023-04-03T03:22:57;6.07;;;4.97;;
23684;SDS011;12020;51.384;6.908;2023-04-03T03:25:24;5.93;;;5.15;;
23684;SDS011;12020;51.384;6.908;2023-04-03T03:27:50;6.78;;;5.00;;
23684;SDS011;12020;51.384;6.908;2023-04-03T03:30:16;6.07;;;4.88;;
23684;SDS011;12020;51.384;6.908;2023-04-03T03:32:42;7.10;;;4.80;;
23684;SDS011;12020;51.384;6.908;2023-04-03T03:35:09;6.43;;;4.93;;
23684;SDS011;12020;51.384;6.908;2023-04-03T03:37:35;6.88;;;4.82;;
23684;SDS011;12020;51.384;6.908;2023-04-03T03:40:02;5.95;;;4.78;;
23684;SDS011;12020;51.384;6.908;2023-04-03T03:42:28;4.80;;;4.22;;
23684;SDS011;12020;51.384;6.908;2023-04-03T03:44:54;6.57;;;4.50;;
23684;SDS011;12020;51.384;6.908;2023-04-03T03:47:21;7.20;;;4.33;;
23684;SDS011;12020;51.384;6.908;2023-04-03T03:49:56;6.03;;;4.25;;
23684;SDS011;12020;51.384;6.908;2023-04-03T03:52:23;6.15;;;4.13;;
23684;SDS011;12020;51.384;6.908;2023-04-03T03:54:49;4.93;;;3.92;;
23684;SDS011;12020;51.384;6.908;2023-04-03T03:57:15;5.75;;;3.75;;
23684;SDS011;12020;51.384;6.908;2023-04-03T03:59:42;6.50;;;3.90;;
23684;SDS011;12020;51.384;6.908;2023-04-03T04:02:10;6.35;;;3.80;;
23684;SDS011;12020;51.384;6.908;2023-04-03T04:04:36;7.28;;;3.78;;
23684;SDS011;12020;51.384;6.908;2023-04-03T04:07:04;5.97;;;3.45;;
23684;SDS011;12020;51.384;6.908;2023-04-03T04:09:32;4.15;;;3.38;;
23684;SDS011;12020;51.384;6.908;2023-04-03T04:12:01;5.03;;;3.28;;
23684;SDS011;12020;51.384;6.908;2023-04-03T04:14:27;5.50;;;3.50;;
23684;SDS011;12020;51.384;6.908;2023-04-03T04:16:54;6.75;;;3.35;;
23684;SDS011;12020;51.384;6.908;2023-04-03T04:19:21;5.85;;;3.40;;
23684;SDS011;12020;51.384;6.908;2023-04-03T04:21:47;5.13;;;3.00;;
23684;SDS011;12020;51.384;6.908;2023-04-03T04:24:13;4.50;;;3.28;;
23684;SDS011;12020;51.384;6.908;2023-04-03T04:26:39;5.22;;;3.38;;
23684;SDS011;12020;51.384;6.908;2023-04-03T04:29:04;5.23;;;3.20;;
23684;SDS011;12020;51.384;6.908;2023-04-03T04:31:31;5.50;;;3.10;;
23684;SDS011;12020;51.384;6.908;2023-04-03T04:33:57;4.78;;;2.85;;
23684;SDS011;12020;51.384;6.908;2023-04-03T04:36:23;5.10;;;3.27;;
23684;SDS011;12020;51.384;6.908;2023-04-03T04:38:49;5.80;;;3.40;;
23684;SDS011;12020;51.384;6.908;2023-04-03T04:41:19;4.93;;;3.10;;
23684;SDS011;12020;51.384;6.908;2023-04-03T04:43:51;5.57;;;3.00;;
23684;SDS011;12020;51.384;6.908;2023-04-03T04:46:18;4.82;;;3.20;;
23684;SDS011;12020;51.384;6.908;2023-04-03T04:48:45;6.32;;;3.13;;
23684;SDS011;12020;51.384;6.908;2023-04-03T04:51:12;5.85;;;3.08;;
23684;SDS011;12020;51.384;6.908;2023-04-03T04:53:38;5.10;;;2.90;;
23684;SDS011;12020;51.384;6.908;2023-04-03T04:56:04;4.68;;;2.70;;
23684;SDS011;12020;51.384;6.908;2023-04-03T04:58:31;5.30;;;2.80;;
23684;SDS011;12020;51.384;6.908;2023-04-03T05:01:06;5.10;;;3.15;;
23684;SDS011;12020;51.384;6.908;2023-04-03T05:03:34;5.03;;;2.72;;
23684;SDS011;12020;51.384;6.908;2023-04-03T05:06:00;4.93;;;2.78;;
23684;SDS011;12020;51.384;6.908;2023-04-03T05:08:26;5.93;;;2.70;;
23684;SDS011;12020;51.384;6.908;2023-04-03T05:10:52;6.82;;;2.83;;
23684;SDS011;12020;51.384;6.908;2023-04-03T05:13:19;6.38;;;3.00;;
23684;SDS011;12020;51.384;6.908;2023-04-03T05:15:45;6.60;;;2.67;;
23684;SDS011;12020;51.384;6.908;2023-04-03T05:18:13;5.03;;;2.63;;
23684;SDS011;12020;51.384;6.908;2023-04-03T05:20:39;6.75;;;2.80;;
23684;SDS011;12020;51.384;6.908;2023-04-03T05:23:11;6.10;;;2.83;;
23684;SDS011;12020;51.384;6.908;2023-04-03T05:25:38;6.60;;;2.80;;
23684;SDS011;12020;51.384;6.908;2023-04-03T05:28:04;4.82;;;2.70;;
23684;SDS011;12020;51.384;6.908;2023-04-03T05:30:31;8.07;;;2.83;;
23684;SDS011;12020;51.384;6.908;2023-04-03T05:32:58;5.72;;;2.88;;
23684;SDS011;12020;51.384;6.908;2023-04-03T05:35:25;6.97;;;2.90;;
23684;SDS011;12020;51.384;6.908;2023-04-03T05:37:52;5.13;;;2.70;;
23684;SDS011;12020;51.384;6.908;2023-04-03T05:40:20;5.82;;;2.60;;
23684;SDS011;12020;51.384;6.908;2023-04-03T05:42:45;5.53;;;3.03;;
23684;SDS011;12020;51.384;6.908;2023-04-03T05:45:12;6.18;;;2.88;;
23684;SDS011;12020;51.384;6.908;2023-04-03T05:47:38;6.30;;;3.17;;
23684;SDS011;12020;51.384;6.908;2023-04-03T05:50:04;7.13;;;3.07;;
23684;SDS011;12020;51.384;6.908;2023-04-03T05:52:31;5.30;;;2.75;;
23684;SDS011;12020;51.384;6.908;2023-04-03T05:55:00;5.82;;;2.67;;
23684;SDS011;12020;51.384;6.908;2023-04-03T05:57:26;5.30;;;2.75;;
23684;SDS011;12020;51.384;6.908;2023-04-03T05:59:51;6.07;;;2.92;;
23684;SDS011;12020;51.384;6.908;2023-04-03T06:02:18;5.00;;;2.78;;
23684;SDS011;12020;51.384;6.908;2023-04-03T06:04:46;7.53;;;3.42;;
23684;SDS011;12020;51.384;6.908;2023-04-03T06:07:13;7.00;;;3.00;;
23684;SDS011;12020;51.384;6.908;2023-04-03T06:09:41;5.47;;;2.90;;
23684;SDS011;12020;51.384;6.908;2023-04-03T06:12:07;6.07;;;2.92;;
23684;SDS011;12020;51.384;6.908;2023-04-03T06:14:33;4.90;;;2.75;;
23684;SDS011;12020;51.384;6.908;2023-04-03T06:16:59;4.83;;;2.77;;
23684;SDS011;12020;51.384;6.908;2023-04-03T06:19:25;6.57;;;3.20;;
23684;SDS011;12020;51.384;6.908;2023-04-03T06:21:51;6.60;;;2.90;;
23684;SDS011;12020;51.384;6.908;2023-04-03T06:24:18;5.72;;;3.10;;
23684;SDS011;12020;51.384;6.908;2023-04-03T06:26:46;5.70;;;2.80;;
23684;SDS011;12020;51.384;6.908;2023-04-03T06:29:12;8.73;;;3.40;;
23684;SDS011;12020;51.384;6.908;2023-04-03T06:31:38;4.82;;;2.72;;
23684;SDS011;12020;51.384;6.908;2023-04-03T06:34:04;8.32;;;3.45;;
23684;SDS011;12020;51.384;6.908;2023-04-03T06:36:32;5.65;;;2.75;;
23684;SDS011;12020;51.384;6.908;2023-04-03T06:38:58;6.72;;;3.08;;
23684;SDS011;12020;51.384;6.908;2023-04-03T06:41:23;4.80;;;2.60;;
23684;SDS011;12020;51.384;6.908;2023-04-03T06:43:52;7.15;;;2.90;;
23684;SDS011;12020;51.384;6.908;2023-04-03T06:46:19;4.82;;;2.70;;
23684;SDS011;12020;51.384;6.908;2023-04-03T06:48:46;4.50;;;2.30;;
23684;SDS011;12020;51.384;6.908;2023-04-03T06:51:30;4.25;;;2.35;;
23684;SDS011;12020;51.384;6.908;2023-04-03T06:53:57;6.15;;;2.83;;
23684;SDS011;12020;51.384;6.908;2023-04-03T06:56:24;4.47;;;2.58;;
23684;SDS011;12020;51.384;6.908;2023-04-03T06:58:51;5.75;;;2.45;;
23684;SDS011;12020;51.384;6.908;2023-04-03T07:01:19;5.40;;;2.70;;
23684;SDS011;12020;51.384;6.908;2023-04-03T07:03:46;5.28;;;2.75;;
23684;SDS011;12020;51.384;6.908;2023-04-03T07:06:14;4.28;;;2.72;;
23684;SDS011;12020;51.384;6.908;2023-04-03T07:08:40;7.50;;;3.05;;
23684;SDS011;12020;51.384;6.908;2023-04-03T07:11:10;5.25;;;2.80;;
23684;SDS011;12020;51.384;6.908;2023-04-03T07:13:36;6.18;;;2.80;;
23684;SDS011;12020;51.384;6.908;2023-04-03T07:16:03;6.13;;;2.63;;
23684;SDS011;12020;51.384;6.908;2023-04-03T07:18:30;5.15;;;2.55;;
23684;SDS011;12020;51.384;6.908;2023-04-03T07:20:56;6.78;;;3.00;;
23684;SDS011;12020;51.384;6.908;2023-04-03T07:23:22;6.10;;;2.70;;
23684;SDS011;12020;51.384;6.908;2023-04-03T07:25:48;5.13;;;2.80;;
23684;SDS011;12020;51.384;6.908;2023-04-03T07:28:16;5.40;;;2.80;;
23684;SDS011;12020;51.384;6.908;2023-04-03T07:30:46;5.10;;;2.70;;
23684;SDS011;12020;51.384;6.908;2023-04-03T07:33:18;5.67;;;2.63;;
23684;SDS011;12020;51.384;6.908;2023-04-03T07:35:45;5.00;;;2.67;;
23684;SDS011;12020;51.384;6.908;2023-04-03T07:38:11;5.90;;;2.60;;
23684;SDS011;12020;51.384;6.908;2023-04-03T07:40:37;5.85;;;2.60;;
23684;SDS011;12020;51.384;6.908;2023-04-03T07:43:05;7.88;;;2.80;;
23684;SDS011;12020;51.384;6.908;2023-04-03T07:45:31;5.33;;;2.57;;
23684;SDS011;12020;51.384;6.908;2023-04-03T07:47:59;6.30;;;2.60;;
23684;SDS011;12020;51.384;6.908;2023-04-03T07:50:25;6.03;;;2.58;;
23684;SDS011;12020;51.384;6.908;2023-04-03T07:52:52;5.75;;;2.63;;
23684;SDS011;12020;51.384;6.908;2023-04-03T07:55:21;6.50;;;2.60;;
23684;SDS011;12020;51.384;6.908;2023-04-03T07:57:47;4.93;;;2.38;;
23684;SDS011;12020;51.384;6.908;2023-04-03T08:00:13;7.15;;;2.60;;
23684;SDS011;12020;51.384;6.908;2023-04-03T08:02:39;4.63;;;2.28;;
23684;SDS011;12020;51.384;6.908;2023-04-03T08:05:04;5.63;;;2.30;;
23684;SDS011;12020;51.384;6.908;2023-04-03T08:07:30;5.03;;;2.30;;
23684;SDS011;12020;51.384;6.908;2023-04-03T08:09:56;4.53;;;2.20;;
23684;SDS011;12020;51.384;6.908;2023-04-03T08:12:22;4.03;;;2.10;;
23684;SDS011;12020;51.384;6.908;2023-04-03T08:14:47;4.38;;;2.40;;
23684;SDS011;12020;51.384;6.908;2023-04-03T08:17:13;4.60;;;1.98;;
23684;SDS011;12020;51.384;6.908;2023-04-03T08:19:39;3.63;;;2.00;;
23684;SDS011;12020;51.384;6.908;2023-04-03T08:22:05;5.22;;;2.05;;
23684;SDS011;12020;51.384;6.908;2023-04-03T08:24:32;3.50;;;1.45;;
23684;SDS011;12020;51.384;6.908;2023-04-03T08:26:58;3.63;;;1.80;;
23684;SDS011;12020;51.384;6.908;2023-04-03T08:29:25;4.88;;;1.80;;
23684;SDS011;12020;51.384;6.908;2023-04-03T08:31:51;4.23;;;2.03;;
23684;SDS011;12020;51.384;6.908;2023-04-03T08:34:17;4.32;;;1.85;;
23684;SDS011;12020;51.384;6.908;2023-04-03T08:36:43;2.70;;;1.70;;
23684;SDS011;12020;51.384;6.908;2023-04-03T08:39:09;3.63;;;2.00;;
23684;SDS011;12020;51.384;6.908;2023-04-03T08:49:54;4.05;;;1.95;;
23684;SDS011;12020;51.384;6.908;2023-04-03T08:55:22;3.92;;;1.70;;
23684;SDS011;12020;51.384;6.908;2023-04-03T08:57:45;4.47;;;1.52;;
23684;SDS011;12020;51.384;6.908;2023-04-03T09:02:44;3.35;;;1.45;;
23684;SDS011;12020;51.384;6.908;2023-04-03T09:05:18;3.60;;;1.33;;
23684;SDS011;12020;51.384;6.908;2023-04-03T09:10:23;3.60;;;1.40;;
23684;SDS011;12020;51.384;6.908;2023-04-03T09:12:55;2.85;;;1.25;;
23684;SDS011;12020;51.384;6.908;2023-04-03T09:15:38;1.95;;;1.23;;
23684;SDS011;12020;51.384;6.908;2023-04-03T09:20:45;3.17;;;1.40;;
23684;SDS011;12020;51.384;6.908;2023-04-03T09:23:26;2.30;;;1.23;;
23684;SDS011;12020;51.384;6.908;2023-04-03T09:26:21;2.40;;;1.25;;
23684;SDS011;12020;51.384;6.908;2023-04-03T09:28:54;3.07;;;1.30;;
23684;SDS011;12020;51.384;6.908;2023-04-03T09:31:27;2.30;;;1.23;;
23684;SDS011;12020;51.384;6.908;2023-04-03T09:34:01;3.55;;;1.48;;
23684;SDS011;12020;51.384;6.908;2023-04-03T09:39:10;4.05;;;1.40;;
23684;SDS011;12020;51.384;6.908;2023-04-03T09:41:42;2.55;;;1.10;;
23684;SDS011;12020;51.384;6.908;2023-04-03T09:44:21;3.60;;;1.05;;
23684;SDS011;12020;51.384;6.908;2023-04-03T09:46:49;2.20;;;1.02;;
23684;SDS011;12020;51.384;6.908;2023-04-03T09:49:15;1.95;;;1.00;;
23684;SDS011;12020;51.384;6.908;2023-04-03T09:51:42;3.15;;;1.35;;
23684;SDS011;12020;51.384;6.908;2023-04-03T09:54:25;1.95;;;1.00;;
23684;SDS011;12020;51.384;6.908;2023-04-03T09:56:55;2.43;;;1.20;;
23684;SDS011;12020;51.384;6.908;2023-04-03T09:59:26;2.40;;;1.20;;
23684;SDS011;12020;51.384;6.908;2023-04-03T10:05:05;3.17;;;1.40;;
23684;SDS011;12020;51.384;6.908;2023-04-03T10:07:49;2.92;;;1.08;;
23684;SDS011;12020;51.384;6.908;2023-04-03T10:10:19;3.40;;;1.27;;
23684;SDS011;12020;51.384;6.908;2023-04-03T10:12:48;2.67;;;1.45;;
23684;SDS011;12020;51.384;6.908;2023-04-03T10:15:16;3.08;;;1.30;;
23684;SDS011;12020;51.384;6.908;2023-04-03T10:18:02;3.13;;;1.23;;
23684;SDS011;12020;51.384;6.908;2023-04-03T10:20:41;2.83;;;1.33;;
23684;SDS011;12020;51.384;6.908;2023-04-03T10:23:31;2.83;;;1.42;;
23684;SDS011;12020;51.384;6.908;2023-04-03T10:26:11;3.25;;;1.30;;
23684;SDS011;12020;51.384;6.908;2023-04-03T10:29:13;3.07;;;1.30;;
23684;SDS011;12020;51.384;6.908;2023-04-03T10:34:33;3.50;;;1.40;;
23684;SDS011;12020;51.384;6.908;2023-04-03T10:42:08;3.10;;;1.33;;
23684;SDS011;12020;51.384;6.908;2023-04-03T10:45:21;2.50;;;1.33;;
23684;SDS011;12020;51.384;6.908;2023-04-03T11:01:43;3.03;;;1.60;;
23684;SDS011;12020;51.384;6.908;2023-04-03T11:04:13;1.92;;;1.30;;
23684;SDS011;12020;51.384;6.908;2023-04-03T11:06:43;3.20;;;1.40;;
23684;SDS011;12020;51.384;6.908;2023-04-03T11:09:35;1.98;;;1.30;;
23684;SDS011;12020;51.384;6.908;2023-04-03T11:12:14;3.15;;;1.38;;
23684;SDS011;12020;51.384;6.908;2023-04-03T11:14:46;3.10;;;1.80;;
23684;SDS011;12020;51.384;6.908;2023-04-03T11:22:30;3.13;;;1.50;;
23684;SDS011;12020;51.384;6.908;2023-04-03T11:27:41;3.40;;;1.60;;
23684;SDS011;12020;51.384;6.908;2023-04-03T11:30:11;3.07;;;1.50;;
23684;SDS011;12020;51.384;6.908;2023-04-03T11:35:16;3.30;;;1.40;;
23684;SDS011;12020;51.384;6.908;2023-04-03T11:37:47;3.05;;;1.55;;
23684;SDS011;12020;51.384;6.908;2023-04-03T11:43:07;3.38;;;1.55;;
23684;SDS011;12020;51.384;6.908;2023-04-03T11:46:00;2.38;;;1.35;;
23684;SDS011;12020;51.384;6.908;2023-04-03T11:50:58;3.40;;;1.48;;
23684;SDS011;12020;51.384;6.908;2023-04-03T11:53:43;3.38;;;1.30;;
23684;SDS011;12020;51.384;6.908;2023-04-03T12:01:52;2.33;;;1.30;;
23684;SDS011;12020;51.384;6.908;2023-04-03T12:04:24;2.25;;;1.30;;
23684;SDS011;12020;51.384;6.908;2023-04-03T12:09:28;1.67;;;1.13;;
23684;SDS011;12020;51.384;6.908;2023-04-03T12:11:57;2.75;;;1.20;;
23684;SDS011;12020;51.384;6.908;2023-04-03T12:14:27;3.40;;;1.42;;
23684;SDS011;12020;51.384;6.908;2023-04-03T12:16:54;2.35;;;1.30;;
23684;SDS011;12020;51.384;6.908;2023-04-03T12:19:40;2.53;;;1.23;;
23684;SDS011;12020;51.384;6.908;2023-04-03T12:22:15;2.50;;;1.23;;
23684;SDS011;12020;51.384;6.908;2023-04-03T12:24:48;2.00;;;1.13;;
23684;SDS011;12020;51.384;6.908;2023-04-03T12:27:27;2.65;;;1.48;;
23684;SDS011;12020;51.384;6.908;2023-04-03T12:35:29;3.00;;;1.40;;
23684;SDS011;12020;51.384;6.908;2023-04-03T12:46:34;2.25;;;1.20;;
23684;SDS011;12020;51.384;6.908;2023-04-03T12:52:02;2.58;;;1.30;;
23684;SDS011;12020;51.384;6.908;2023-04-03T12:54:49;2.50;;;1.30;;
23684;SDS011;12020;51.384;6.908;2023-04-03T12:57:17;2.28;;;1.30;;
23684;SDS011;12020;51.384;6.908;2023-04-03T12:59:45;2.72;;;1.27;;
23684;SDS011;12020;51.384;6.908;2023-04-03T13:04:49;2.75;;;1.40;;
23684;SDS011;12020;51.384;6.908;2023-04-03T13:07:19;2.75;;;1.20;;
23684;SDS011;12020;51.384;6.908;2023-04-03T13:09:54;2.58;;;1.35;;
23684;SDS011;12020;51.384;6.908;2023-04-03T13:12:33;2.20;;;1.20;;
23684;SDS011;12020;51.384;6.908;2023-04-03T13:15:16;2.50;;;1.33;;
23684;SDS011;12020;51.384;6.908;2023-04-03T13:17:44;3.03;;;1.45;;
23684;SDS011;12020;51.384;6.908;2023-04-03T13:20:15;2.90;;;1.40;;
23684;SDS011;12020;51.384;6.908;2023-04-03T13:25:19;2.70;;;1.40;;
23684;SDS011;12020;51.384;6.908;2023-04-03T13:27:47;2.30;;;1.23;;
23684;SDS011;12020;51.384;6.908;2023-04-03T13:30:30;3.13;;;1.38;;
23684;SDS011;12020;51.384;6.908;2023-04-03T13:32:59;3.47;;;1.40;;
23684;SDS011;12020;51.384;6.908;2023-04-03T13:38:19;3.40;;;1.60;;
23684;SDS011;12020;51.384;6.908;2023-04-03T13:43:26;3.10;;;1.50;;
23684;SDS011;12020;51.384;6.908;2023-04-03T13:46:04;3.97;;;1.40;;
23684;SDS011;12020;51.384;6.908;2023-04-03T13:48:40;2.13;;;1.20;;
23684;SDS011;12020;51.384;6.908;2023-04-03T13:53:46;2.15;;;1.20;;
23684;SDS011;12020;51.384;6.908;2023-04-03T14:07:08;3.53;;;1.40;;
23684;SDS011;12020;51.384;6.908;2023-04-03T14:09:34;3.70;;;1.10;;
23684;SDS011;12020;51.384;6.908;2023-04-03T14:12:02;2.85;;;1.40;;
23684;SDS011;12020;51.384;6.908;2023-04-03T14:14:33;2.42;;;1.10;;
23684;SDS011;12020;51.384;6.908;2023-04-03T14:17:03;2.00;;;1.30;;
23684;SDS011;12020;51.384;6.908;2023-04-03T14:19:37;3.00;;;1.30;;
23684;SDS011;12020;51.384;6.908;2023-04-03T14:22:10;2.67;;;1.10;;
23684;SDS011;12020;51.384;6.908;2023-04-03T14:24:47;2.13;;;1.10;;
23684;SDS011;12020;51.384;6.908;2023-04-03T14:27:18;2.50;;;1.10;;
23684;SDS011;12020;51.384;6.908;2023-04-03T14:29:52;2.30;;;1.40;;
23684;SDS011;12020;51.384;6.908;2023-04-03T14:32:20;2.70;;;1.25;;
23684;SDS011;12020;51.384;6.908;2023-04-03T14:34:47;3.05;;;1.50;;
23684;SDS011;12020;51.384;6.908;2023-04-03T14:37:15;2.47;;;1.38;;
23684;SDS011;12020;51.384;6.908;2023-04-03T14:39:45;2.90;;;1.20;;
23684;SDS011;12020;51.384;6.908;2023-04-03T14:42:20;2.33;;;1.10;;
23684;SDS011;12020;51.384;6.908;2023-04-03T14:44:47;3.10;;;1.30;;
23684;SDS011;12020;51.384;6.908;2023-04-03T14:47:14;2.97;;;1.20;;
23684;SDS011;12020;51.384;6.908;2023-04-03T14:49:43;3.33;;;1.40;;
23684;SDS011;12020;51.384;6.908;2023-04-03T14:52:19;3.30;;;1.38;;
23684;SDS011;12020;51.384;6.908;2023-04-03T14:54:48;3.42;;;1.48;;
23684;SDS011;12020;51.384;6.908;2023-04-03T14:57:14;2.47;;;1.30;;
23684;SDS011;12020;51.384;6.908;2023-04-03T14:59:42;2.30;;;1.40;;
23684;SDS011;12020;51.384;6.908;2023-04-03T15:05:02;3.25;;;1.38;;
23684;SDS011;12020;51.384;6.908;2023-04-03T15:07:30;2.20;;;1.30;;
23684;SDS011;12020;51.384;6.908;2023-04-03T15:10:02;2.97;;;1.40;;
23684;SDS011;12020;51.384;6.908;2023-04-03T15:12:45;3.25;;;1.30;;
23684;SDS011;12020;51.384;6.908;2023-04-03T15:15:13;2.42;;;1.50;;
23684;SDS011;12020;51.384;6.908;2023-04-03T15:17:40;2.28;;;1.23;;
23684;SDS011;12020;51.384;6.908;2023-04-03T15:22:40;2.80;;;1.63;;
23684;SDS011;12020;51.384;6.908;2023-04-03T15:25:05;2.97;;;1.38;;
23684;SDS011;12020;51.384;6.908;2023-04-03T15:27:31;3.28;;;1.40;;
23684;SDS011;12020;51.384;6.908;2023-04-03T15:29:57;3.67;;;1.30;;
23684;SDS011;12020;51.384;6.908;2023-04-03T15:32:24;2.15;;;1.20;;
23684;SDS011;12020;51.384;6.908;2023-04-03T15:34:50;2.42;;;1.52;;
23684;SDS011;12020;51.384;6.908;2023-04-03T15:37:15;3.33;;;1.23;;
23684;SDS011;12020;51.384;6.908;2023-04-03T15:39:42;2.25;;;1.08;;
23684;SDS011;12020;51.384;6.908;2023-04-03T15:42:08;2.75;;;1.50;;
23684;SDS011;12020;51.384;6.908;2023-04-03T15:44:33;4.22;;;1.40;;
23684;SDS011;12020;51.384;6.908;2023-04-03T15:47:00;4.65;;;1.40;;
23684;SDS011;12020;51.384;6.908;2023-04-03T15:49:26;3.03;;;1.23;;
23684;SDS011;12020;51.384;6.908;2023-04-03T15:51:52;3.17;;;1.50;;
23684;SDS011;12020;51.384;6.908;2023-04-03T15:54:18;2.45;;;1.48;;
23684;SDS011;12020;51.384;6.908;2023-04-03T15:56:44;2.50;;;1.33;;
23684;SDS011;12020;51.384;6.908;2023-04-03T15:59:10;3.33;;;1.38;;
23684;SDS011;12020;51.384;6.908;2023-04-03T16:01:36;3.83;;;1.50;;
23684;SDS011;12020;51.384;6.908;2023-04-03T16:04:02;3.53;;;1.42;;
23684;SDS011;12020;51.384;6.908;2023-04-03T16:06:28;4.10;;;1.50;;
23684;SDS011;12020;51.384;6.908;2023-04-03T16:08:55;3.33;;;1.50;;
23684;SDS011;12020;51.384;6.908;2023-04-03T16:11:23;3.40;;;1.70;;
23684;SDS011;12020;51.384;6.908;2023-04-03T16:13:51;3.10;;;1.50;;
23684;SDS011;12020;51.384;6.908;2023-04-03T16:16:16;3.05;;;1.30;;
23684;SDS011;12020;51.384;6.908;2023-04-03T16:18:42;2.85;;;1.35;;
23684;SDS011;12020;51.384;6.908;2023-04-03T16:21:08;3.25;;;1.70;;
23684;SDS011;12020;51.384;6.908;2023-04-03T16:23:34;2.33;;;1.50;;
23684;SDS011;12020;51.384;6.908;2023-04-03T16:26:00;3.60;;;1.50;;
23684;SDS011;12020;51.384;6.908;2023-04-03T16:28:26;3.05;;;1.50;;
23684;SDS011;12020;51.384;6.908;2023-04-03T16:30:51;3.42;;;1.52;;
23684;SDS011;12020;51.384;6.908;2023-04-03T16:33:17;2.63;;;1.40;;
23684;SDS011;12020;51.384;6.908;2023-04-03T16:35:46;2.55;;;1.40;;
23684;SDS011;12020;51.384;6.908;2023-04-03T16:38:13;2.50;;;1.60;;
23684;SDS011;12020;51.384;6.908;2023-04-03T16:40:39;2.45;;;1.30;;
23684;SDS011;12020;51.384;6.908;2023-04-03T16:43:04;3.70;;;1.58;;
23684;SDS011;12020;51.384;6.908;2023-04-03T16:45:30;4.27;;;1.50;;
23684;SDS011;12020;51.384;6.908;2023-04-03T16:47:56;2.70;;;1.40;;
23684;SDS011;12020;51.384;6.908;2023-04-03T16:50:21;2.93;;;1.60;;
23684;SDS011;12020;51.384;6.908;2023-04-03T16:52:47;3.50;;;1.40;;
23684;SDS011;12020;51.384;6.908;2023-04-03T16:55:12;3.07;;;1.43;;
23684;SDS011;12020;51.384;6.908;2023-04-03T16:57:38;3.40;;;1.53;;
23684;SDS011;12020;51.384;6.908;2023-04-03T17:00:04;3.57;;;1.70;;
23684;SDS011;12020;51.384;6.908;2023-04-03T17:02:32;3.67;;;1.37;;
23684;SDS011;12020;51.384;6.908;2023-04-03T17:04:58;2.75;;;1.27;;
23684;SDS011;12020;51.384;6.908;2023-04-03T17:07:24;2.03;;;1.35;;
23684;SDS011;12020;51.384;6.908;2023-04-03T17:09:50;2.78;;;1.33;;